Itabuna, Brazil
Current Conditions -  °F | °C
As of 5:00 AM on Tuesday 27 Jan 2015 (Local Time) from SBIL Reporting Station
Scattered Clouds Scattered Clouds  
Wind Chill: 75°   Ceiling: Unl
Heat Index: 75°   Visibility: 6mi
Dew Point: 73°   Wind: 5mph
Humidity: 94%   Direction: 280°W
Pressure: 29.94"   Gusts: NA
Location:  14.79°S, 39.28°W
Report Text: SBIL 270800Z 28004KT 9999 SCT020 SCT050 24/23 Q1014
Loading
Personal Weather Stations






























Interactive Weather Map New forecast layout! Learn more

10-Day Weather Forecast

Advertisements
Track Severe Weather on mobile